sensor_id;sensor_type;location;lat;lon;timestamp;pressure;altitude;pressure_sealevel;temperature;humidity
53514;BME280;39768;54.148;12.174;2022-10-18T00:01:56;102281.91;;;18.09;100.00
53514;BME280;39768;54.148;12.174;2022-10-18T00:05:57;102284.53;;;18.11;100.00
53514;BME280;39768;54.148;12.174;2022-10-18T00:09:59;102286.50;;;18.04;100.00
53514;BME280;39768;54.148;12.174;2022-10-18T00:14:00;102283.03;;;17.97;100.00
53514;BME280;39768;54.148;12.174;2022-10-18T00:18:02;102291.03;;;18.01;100.00
53514;BME280;39768;54.148;12.174;2022-10-18T00:22:03;102297.25;;;18.04;100.00
53514;BME280;39768;54.148;12.174;2022-10-18T00:26:06;102300.00;;;18.00;100.00
53514;BME280;39768;54.148;12.174;2022-10-18T00:30:08;102303.34;;;18.11;100.00
53514;BME280;39768;54.148;12.174;2022-10-18T00:34:10;102291.63;;;18.15;100.00
53514;BME280;39768;54.148;12.174;2022-10-18T00:38:12;102289.72;;;18.21;100.00
53514;BME280;39768;54.148;12.174;2022-10-18T00:42:17;102306.81;;;18.17;100.00
53514;BME280;39768;54.148;12.174;2022-10-18T00:46:19;102300.31;;;17.84;100.00
53514;BME280;39768;54.148;12.174;2022-10-18T00:50:21;102306.03;;;18.11;100.00
53514;BME280;39768;54.148;12.174;2022-10-18T00:54:23;102306.38;;;17.95;100.00
53514;BME280;39768;54.148;12.174;2022-10-18T00:58:25;102298.16;;;18.03;100.00
53514;BME280;39768;54.148;12.174;2022-10-18T01:02:26;102307.19;;;17.99;100.00
53514;BME280;39768;54.148;12.174;2022-10-18T01:06:28;102308.22;;;17.93;100.00
53514;BME280;39768;54.148;12.174;2022-10-18T01:14:57;102296.09;;;17.70;100.00
53514;BME280;39768;54.148;12.174;2022-10-18T01:19:03;102308.38;;;17.83;100.00
53514;BME280;39768;54.148;12.174;2022-10-18T01:23:11;102301.50;;;17.68;100.00
53514;BME280;39768;54.148;12.174;2022-10-18T01:27:22;102313.09;;;17.72;100.00
53514;BME280;39768;54.148;12.174;2022-10-18T01:31:33;102313.31;;;17.56;100.00
53514;BME280;39768;54.148;12.174;2022-10-18T01:35:40;102302.66;;;17.52;100.00
53514;BME280;39768;54.148;12.174;2022-10-18T01:39:44;102315.38;;;17.41;100.00
53514;BME280;39768;54.148;12.174;2022-10-18T01:43:47;102311.72;;;17.46;100.00
53514;BME280;39768;54.148;12.174;2022-10-18T01:47:50;102317.13;;;17.43;100.00
53514;BME280;39768;54.148;12.174;2022-10-18T01:51:52;102311.78;;;17.42;100.00
53514;BME280;39768;54.148;12.174;2022-10-18T01:55:56;102309.97;;;17.44;100.00
53514;BME280;39768;54.148;12.174;2022-10-18T02:00:03;102310.28;;;17.24;100.00
53514;BME280;39768;54.148;12.174;2022-10-18T02:04:16;102319.22;;;17.26;100.00
53514;BME280;39768;54.148;12.174;2022-10-18T02:12:28;102314.84;;;17.20;100.00
53514;BME280;39768;54.148;12.174;2022-10-18T02:16:42;102306.88;;;17.14;100.00
53514;BME280;39768;54.148;12.174;2022-10-18T02:20:44;102306.16;;;17.05;100.00
53514;BME280;39768;54.148;12.174;2022-10-18T02:24:49;102307.75;;;17.16;100.00
53514;BME280;39768;54.148;12.174;2022-10-18T02:28:51;102304.25;;;17.11;100.00
53514;BME280;39768;54.148;12.174;2022-10-18T02:32:56;102298.84;;;17.13;100.00
53514;BME280;39768;54.148;12.174;2022-10-18T02:36:59;102313.91;;;17.21;100.00
53514;BME280;39768;54.148;12.174;2022-10-18T02:41:01;102312.53;;;16.95;100.00
53514;BME280;39768;54.148;12.174;2022-10-18T02:45:03;102310.72;;;16.97;100.00
53514;BME280;39768;54.148;12.174;2022-10-18T02:49:05;102311.72;;;16.91;100.00
53514;BME280;39768;54.148;12.174;2022-10-18T02:53:06;102320.50;;;17.01;100.00
53514;BME280;39768;54.148;12.174;2022-10-18T02:57:07;102329.50;;;16.98;100.00
53514;BME280;39768;54.148;12.174;2022-10-18T03:01:09;102335.97;;;16.83;100.00
53514;BME280;39768;54.148;12.174;2022-10-18T03:05:10;102340.50;;;16.78;100.00
53514;BME280;39768;54.148;12.174;2022-10-18T03:09:12;102344.97;;;16.79;100.00
53514;BME280;39768;54.148;12.174;2022-10-18T03:13:13;102338.78;;;16.76;100.00
53514;BME280;39768;54.148;12.174;2022-10-18T03:17:14;102331.75;;;16.66;100.00
53514;BME280;39768;54.148;12.174;2022-10-18T03:21:16;102339.06;;;16.50;100.00
53514;BME280;39768;54.148;12.174;2022-10-18T03:25:17;102345.19;;;16.61;100.00
53514;BME280;39768;54.148;12.174;2022-10-18T03:29:19;102332.72;;;16.58;100.00
53514;BME280;39768;54.148;12.174;2022-10-18T03:33:20;102329.13;;;16.60;100.00
53514;BME280;39768;54.148;12.174;2022-10-18T03:37:21;102330.84;;;16.62;100.00
53514;BME280;39768;54.148;12.174;2022-10-18T03:41:23;102324.69;;;16.57;100.00
53514;BME280;39768;54.148;12.174;2022-10-18T03:45:24;102326.50;;;16.53;100.00
53514;BME280;39768;54.148;12.174;2022-10-18T03:49:31;102317.50;;;16.61;100.00
53514;BME280;39768;54.148;12.174;2022-10-18T03:53:33;102316.84;;;16.42;100.00
53514;BME280;39768;54.148;12.174;2022-10-18T03:57:35;102316.03;;;16.35;100.00
53514;BME280;39768;54.148;12.174;2022-10-18T04:01:36;102310.63;;;16.38;100.00
53514;BME280;39768;54.148;12.174;2022-10-18T04:05:38;102319.59;;;16.34;100.00
53514;BME280;39768;54.148;12.174;2022-10-18T04:09:39;102316.03;;;16.34;100.00
53514;BME280;39768;54.148;12.174;2022-10-18T04:13:41;102312.41;;;16.39;100.00
53514;BME280;39768;54.148;12.174;2022-10-18T04:17:42;102317.63;;;16.50;100.00
53514;BME280;39768;54.148;12.174;2022-10-18T04:21:43;102314.38;;;16.25;100.00
53514;BME280;39768;54.148;12.174;2022-10-18T04:25:45;102320.66;;;16.21;100.00
53514;BME280;39768;54.148;12.174;2022-10-18T04:29:46;102306.34;;;16.23;100.00
53514;BME280;39768;54.148;12.174;2022-10-18T04:33:47;102306.44;;;16.16;100.00
53514;BME280;39768;54.148;12.174;2022-10-18T04:37:49;102297.59;;;16.09;100.00
53514;BME280;39768;54.148;12.174;2022-10-18T04:41:51;102307.38;;;16.12;100.00
53514;BME280;39768;54.148;12.174;2022-10-18T04:45:52;102304.66;;;16.16;100.00
53514;BME280;39768;54.148;12.174;2022-10-18T04:49:53;102294.91;;;16.09;100.00
53514;BME280;39768;54.148;12.174;2022-10-18T04:53:55;102296.66;;;16.13;100.00
53514;BME280;39768;54.148;12.174;2022-10-18T04:57:56;102299.66;;;15.86;100.00
53514;BME280;39768;54.148;12.174;2022-10-18T05:01:58;102293.44;;;15.82;100.00
53514;BME280;39768;54.148;12.174;2022-10-18T05:05:59;102286.34;;;15.75;100.00
53514;BME280;39768;54.148;12.174;2022-10-18T05:10:03;102289.81;;;15.86;100.00
53514;BME280;39768;54.148;12.174;2022-10-18T05:14:05;102285.44;;;15.78;100.00
53514;BME280;39768;54.148;12.174;2022-10-18T05:18:06;102276.63;;;15.67;100.00
53514;BME280;39768;54.148;12.174;2022-10-18T05:22:08;102275.88;;;15.48;100.00
53514;BME280;39768;54.148;12.174;2022-10-18T05:26:09;102285.69;;;15.50;100.00
53514;BME280;39768;54.148;12.174;2022-10-18T05:30:10;102276.81;;;15.44;100.00
53514;BME280;39768;54.148;12.174;2022-10-18T05:34:12;102271.38;;;15.55;100.00
53514;BME280;39768;54.148;12.174;2022-10-18T05:38:13;102276.78;;;15.48;100.00
53514;BME280;39768;54.148;12.174;2022-10-18T05:42:15;102273.44;;;15.22;100.00
53514;BME280;39768;54.148;12.174;2022-10-18T05:46:16;102275.91;;;15.45;100.00
53514;BME280;39768;54.148;12.174;2022-10-18T05:50:17;102277.03;;;15.23;100.00
53514;BME280;39768;54.148;12.174;2022-10-18T05:54:19;102275.22;;;15.23;100.00
53514;BME280;39768;54.148;12.174;2022-10-18T05:58:21;102279.69;;;15.26;100.00
53514;BME280;39768;54.148;12.174;2022-10-18T06:02:22;102289.47;;;15.27;100.00
53514;BME280;39768;54.148;12.174;2022-10-18T06:06:24;102284.00;;;15.42;100.00
53514;BME280;39768;54.148;12.174;2022-10-18T06:10:25;102289.28;;;15.48;100.00
53514;BME280;39768;54.148;12.174;2022-10-18T06:14:26;102294.63;;;15.48;100.00
53514;BME280;39768;54.148;12.174;2022-10-18T06:18:28;102307.13;;;15.47;100.00
53514;BME280;39768;54.148;12.174;2022-10-18T06:22:30;102302.47;;;15.72;100.00
53514;BME280;39768;54.148;12.174;2022-10-18T06:26:31;102313.25;;;15.65;100.00
53514;BME280;39768;54.148;12.174;2022-10-18T06:30:32;102327.38;;;15.80;100.00
53514;BME280;39768;54.148;12.174;2022-10-18T06:34:35;102329.31;;;15.62;100.00
53514;BME280;39768;54.148;12.174;2022-10-18T06:38:36;102328.50;;;15.58;100.00
53514;BME280;39768;54.148;12.174;2022-10-18T06:42:37;102332.00;;;15.63;100.00
53514;BME280;39768;54.148;12.174;2022-10-18T06:46:40;102328.31;;;15.73;100.00
53514;BME280;39768;54.148;12.174;2022-10-18T06:50:41;102336.34;;;15.75;100.00
53514;BME280;39768;54.148;12.174;2022-10-18T06:54:42;102347.78;;;15.91;100.00
53514;BME280;39768;54.148;12.174;2022-10-18T06:58:45;102335.38;;;15.83;100.00
53514;BME280;39768;54.148;12.174;2022-10-18T07:02:47;102330.97;;;15.76;100.00
53514;BME280;39768;54.148;12.174;2022-10-18T07:06:48;102329.13;;;15.84;100.00
53514;BME280;39768;54.148;12.174;2022-10-18T07:10:50;102338.09;;;15.80;100.00
53514;BME280;39768;54.148;12.174;2022-10-18T07:14:53;102330.97;;;15.76;100.00
53514;BME280;39768;54.148;12.174;2022-10-18T07:18:55;102353.28;;;15.78;100.00
53514;BME280;39768;54.148;12.174;2022-10-18T07:22:56;102356.84;;;15.76;100.00
53514;BME280;39768;54.148;12.174;2022-10-18T07:26:58;102356.84;;;15.76;100.00
53514;BME280;39768;54.148;12.174;2022-10-18T07:31:03;102363.69;;;16.09;100.00
53514;BME280;39768;54.148;12.174;2022-10-18T07:35:06;102363.69;;;16.09;100.00
53514;BME280;39768;54.148;12.174;2022-10-18T07:39:08;102365.47;;;16.07;100.00
53514;BME280;39768;54.148;12.174;2022-10-18T07:43:09;102380.75;;;15.99;100.00
53514;BME280;39768;54.148;12.174;2022-10-18T07:47:12;102383.25;;;16.17;100.00
53514;BME280;39768;54.148;12.174;2022-10-18T07:51:14;102389.28;;;16.34;100.00
53514;BME280;39768;54.148;12.174;2022-10-18T07:55:15;102392.03;;;16.31;100.00
53514;BME280;39768;54.148;12.174;2022-10-18T07:59:17;102404.41;;;16.41;100.00
53514;BME280;39768;54.148;12.174;2022-10-18T08:03:18;102405.16;;;16.54;100.00
53514;BME280;39768;54.148;12.174;2022-10-18T08:07:20;102401.31;;;16.78;100.00
53514;BME280;39768;54.148;12.174;2022-10-18T08:11:22;102394.72;;;16.31;100.00
53514;BME280;39768;54.148;12.174;2022-10-18T08:15:24;102396.41;;;16.37;100.00
53514;BME280;39768;54.148;12.174;2022-10-18T08:19:25;102386.53;;;16.43;100.00
53514;BME280;39768;54.148;12.174;2022-10-18T08:23:27;102385.31;;;16.70;100.00
53514;BME280;39768;54.148;12.174;2022-10-18T08:27:28;102387.84;;;16.82;100.00
53514;BME280;39768;54.148;12.174;2022-10-18T08:31:30;102386.41;;;16.51;100.00
53514;BME280;39768;54.148;12.174;2022-10-18T08:35:31;102372.03;;;16.58;100.00
53514;BME280;39768;54.148;12.174;2022-10-18T08:39:33;102369.06;;;16.81;100.00
53514;BME280;39768;54.148;12.174;2022-10-18T08:43:39;102381.41;;;16.96;100.00
53514;BME280;39768;54.148;12.174;2022-10-18T08:47:44;102376.88;;;16.99;100.00
53514;BME280;39768;54.148;12.174;2022-10-18T08:51:49;102381.31;;;17.03;100.00
53514;BME280;39768;54.148;12.174;2022-10-18T08:55:59;102380.50;;;16.95;100.00
53514;BME280;39768;54.148;12.174;2022-10-18T09:00:16;102382.41;;;16.87;100.00
53514;BME280;39768;54.148;12.174;2022-10-18T09:04:24;102395.38;;;17.20;100.00
53514;BME280;39768;54.148;12.174;2022-10-18T09:08:40;102384.41;;;17.34;100.00
53514;BME280;39768;54.148;12.174;2022-10-18T09:12:58;102388.09;;;17.25;100.00
53514;BME280;39768;54.148;12.174;2022-10-18T09:17:04;102386.53;;;17.12;100.00
53514;BME280;39768;54.148;12.174;2022-10-18T09:25:35;102397.38;;;17.65;100.00
53514;BME280;39768;54.148;12.174;2022-10-18T09:29:39;102388.19;;;17.21;100.00
53514;BME280;39768;54.148;12.174;2022-10-18T09:34:04;102387.53;;;17.62;100.00
53514;BME280;39768;54.148;12.174;2022-10-18T09:38:09;102397.88;;;17.88;100.00
53514;BME280;39768;54.148;12.174;2022-10-18T09:42:26;102390.69;;;17.35;100.00
53514;BME280;39768;54.148;12.174;2022-10-18T09:46:30;102386.06;;;17.43;100.00
53514;BME280;39768;54.148;12.174;2022-10-18T09:50:34;102384.06;;;17.54;100.00
53514;BME280;39768;54.148;12.174;2022-10-18T09:54:48;102376.94;;;17.51;100.00
53514;BME280;39768;54.148;12.174;2022-10-18T09:58:52;102374.69;;;17.25;100.00
53514;BME280;39768;54.148;12.174;2022-10-18T10:02:54;102368.75;;;17.62;100.00
53514;BME280;39768;54.148;12.174;2022-10-18T10:06:56;102381.31;;;17.58;100.00
53514;BME280;39768;54.148;12.174;2022-10-18T10:10:59;102389.34;;;17.60;100.00
53514;BME280;39768;54.148;12.174;2022-10-18T10:15:16;102381.59;;;17.42;100.00
53514;BME280;39768;54.148;12.174;2022-10-18T10:19:26;102379.59;;;17.54;100.00
53514;BME280;39768;54.148;12.174;2022-10-18T10:23:29;102374.44;;;17.41;100.00
53514;BME280;39768;54.148;12.174;2022-10-18T10:27:33;102374.47;;;17.39;100.00
53514;BME280;39768;54.148;12.174;2022-10-18T10:31:41;102370.16;;;17.31;100.00
53514;BME280;39768;54.148;12.174;2022-10-18T10:35:42;102360.25;;;17.36;100.00
53514;BME280;39768;54.148;12.174;2022-10-18T10:40:06;102365.00;;;17.15;100.00
53514;BME280;39768;54.148;12.174;2022-10-18T10:44:22;102380.00;;;17.30;100.00
53514;BME280;39768;54.148;12.174;2022-10-18T10:48:24;102370.56;;;17.05;100.00
53514;BME280;39768;54.148;12.174;2022-10-18T10:52:32;102370.47;;;17.09;100.00
53514;BME280;39768;54.148;12.174;2022-10-18T10:56:34;102377.78;;;16.98;100.00
53514;BME280;39768;54.148;12.174;2022-10-18T11:00:38;102380.41;;;17.03;100.00
53514;BME280;39768;54.148;12.174;2022-10-18T11:04:41;102382.78;;;16.56;100.00
53514;BME280;39768;54.148;12.174;2022-10-18T11:08:42;102377.16;;;16.78;100.00
53514;BME280;39768;54.148;12.174;2022-10-18T11:12:44;102383.91;;;17.08;100.00
53514;BME280;39768;54.148;12.174;2022-10-18T11:16:55;102385.88;;;17.53;100.00
53514;BME280;39768;54.148;12.174;2022-10-18T11:21:03;102377.06;;;17.47;100.00
53514;BME280;39768;54.148;12.174;2022-10-18T11:25:09;102363.41;;;17.60;100.00
53514;BME280;39768;54.148;12.174;2022-10-18T11:51:00;102369.75;;;18.07;100.00
53514;BME280;39768;54.148;12.174;2022-10-18T11:55:24;102366.69;;;17.79;100.00
53514;BME280;39768;54.148;12.174;2022-10-18T11:59:37;102370.03;;;18.38;100.00
53514;BME280;39768;54.148;12.174;2022-10-18T12:03:57;102367.84;;;18.12;100.00
53514;BME280;39768;54.148;12.174;2022-10-18T12:08:12;102359.59;;;18.23;100.00
53514;BME280;39768;54.148;12.174;2022-10-18T12:12:17;102359.19;;;18.41;100.00
53514;BME280;39768;54.148;12.174;2022-10-18T12:16:20;102356.50;;;18.41;100.00
53514;BME280;39768;54.148;12.174;2022-10-18T12:20:50;102357.13;;;18.11;100.00
53514;BME280;39768;54.148;12.174;2022-10-18T12:24:53;102355.56;;;17.99;100.00
53514;BME280;39768;54.148;12.174;2022-10-18T12:28:59;102347.34;;;18.08;100.00
53514;BME280;39768;54.148;12.174;2022-10-18T12:33:09;102348.69;;;17.83;100.00
53514;BME280;39768;54.148;12.174;2022-10-18T12:41:34;102333.06;;;18.05;100.00
53514;BME280;39768;54.148;12.174;2022-10-18T12:45:45;102331.03;;;18.16;100.00
53514;BME280;39768;54.148;12.174;2022-10-18T12:50:24;102330.72;;;17.86;100.00
53514;BME280;39768;54.148;12.174;2022-10-18T12:54:15;102326.41;;;17.78;100.00
53514;BME280;39768;54.148;12.174;2022-10-18T12:58:21;102337.03;;;17.84;100.00
53514;BME280;39768;54.148;12.174;2022-10-18T13:02:25;102330.41;;;18.03;100.00
53514;BME280;39768;54.148;12.174;2022-10-18T13:07:10;102329.81;;;17.87;98.55
53514;BME280;39768;54.148;12.174;2022-10-18T13:10:56;102321.44;;;18.04;99.53
53514;BME280;39768;54.148;12.174;2022-10-18T13:15:18;102332.38;;;17.95;98.44
53514;BME280;39768;54.148;12.174;2022-10-18T13:19:32;102325.28;;;17.91;99.51
53514;BME280;39768;54.148;12.174;2022-10-18T13:31:47;102317.63;;;18.14;97.99
53514;BME280;39768;54.148;12.174;2022-10-18T13:40:12;102326.16;;;18.36;95.38
53514;BME280;39768;54.148;12.174;2022-10-18T13:44:32;102322.69;;;18.29;95.06
53514;BME280;39768;54.148;12.174;2022-10-18T13:55:25;102329.59;;;17.47;97.97
53514;BME280;39768;54.148;12.174;2022-10-18T13:59:52;102327.88;;;17.43;98.31
53514;BME280;39768;54.148;12.174;2022-10-18T14:08:36;102328.31;;;17.16;100.00
53514;BME280;39768;54.148;12.174;2022-10-18T14:12:40;102325.41;;;17.30;100.00
53514;BME280;39768;54.148;12.174;2022-10-18T14:16:47;102324.25;;;17.47;100.00
53514;BME280;39768;54.148;12.174;2022-10-18T14:21:03;102324.31;;;17.43;100.00
53514;BME280;39768;54.148;12.174;2022-10-18T14:25:55;102317.13;;;17.45;100.00
53514;BME280;39768;54.148;12.174;2022-10-18T14:29:49;102316.56;;;17.78;100.00
53514;BME280;39768;54.148;12.174;2022-10-18T14:34:11;102309.97;;;17.94;100.00
53514;BME280;39768;54.148;12.174;2022-10-18T14:38:15;102311.31;;;17.71;100.00
53514;BME280;39768;54.148;12.174;2022-10-18T14:42:22;102313.50;;;17.47;100.00
53514;BME280;39768;54.148;12.174;2022-10-18T14:46:25;102314.25;;;17.54;100.00
53514;BME280;39768;54.148;12.174;2022-10-18T14:50:31;102313.81;;;17.27;100.00
53514;BME280;39768;54.148;12.174;2022-10-18T14:54:36;102315.28;;;17.47;100.00
53514;BME280;39768;54.148;12.174;2022-10-18T14:58:40;102316.28;;;17.41;100.00
53514;BME280;39768;54.148;12.174;2022-10-18T15:02:42;102306.53;;;17.36;100.00
53514;BME280;39768;54.148;12.174;2022-10-18T15:06:43;102309.28;;;17.31;100.00
53514;BME280;39768;54.148;12.174;2022-10-18T15:10:45;102304.94;;;17.22;100.00
53514;BME280;39768;54.148;12.174;2022-10-18T15:14:48;102313.19;;;17.12;100.00
53514;BME280;39768;54.148;12.174;2022-10-18T15:19:24;102311.63;;;16.97;100.00
53514;BME280;39768;54.148;12.174;2022-10-18T15:23:27;102308.19;;;16.87;100.00
53514;BME280;39768;54.148;12.174;2022-10-18T15:27:35;102305.75;;;16.71;100.00
53514;BME280;39768;54.148;12.174;2022-10-18T15:31:38;102307.34;;;16.84;100.00
53514;BME280;39768;54.148;12.174;2022-10-18T15:35:43;102314.44;;;16.89;100.00
53514;BME280;39768;54.148;12.174;2022-10-18T15:39:44;102312.63;;;16.90;100.00
53514;BME280;39768;54.148;12.174;2022-10-18T15:43:46;102311.56;;;17.00;100.00
53514;BME280;39768;54.148;12.174;2022-10-18T15:56:39;102299.31;;;16.82;100.00
53514;BME280;39768;54.148;12.174;2022-10-18T16:00:42;102303.00;;;16.77;100.00
53514;BME280;39768;54.148;12.174;2022-10-18T16:04:44;102299.81;;;16.46;100.00
53514;BME280;39768;54.148;12.174;2022-10-18T16:08:50;102299.94;;;16.35;100.00
53514;BME280;39768;54.148;12.174;2022-10-18T16:12:52;102306.13;;;16.42;100.00
53514;BME280;39768;54.148;12.174;2022-10-18T16:17:02;102309.78;;;16.33;100.00
53514;BME280;39768;54.148;12.174;2022-10-18T16:21:05;102317.22;;;16.10;100.00
53514;BME280;39768;54.148;12.174;2022-10-18T16:25:07;102308.28;;;16.12;100.00
53514;BME280;39768;54.148;12.174;2022-10-18T16:29:21;102318.69;;;16.35;100.00
53514;BME280;39768;54.148;12.174;2022-10-18T16:33:26;102321.47;;;16.29;100.00
53514;BME280;39768;54.148;12.174;2022-10-18T16:37:27;102326.81;;;16.32;100.00
53514;BME280;39768;54.148;12.174;2022-10-18T16:41:29;102326.81;;;16.31;100.00
53514;BME280;39768;54.148;12.174;2022-10-18T16:45:30;102331.16;;;16.41;100.00
53514;BME280;39768;54.148;12.174;2022-10-18T16:49:32;102343.06;;;16.17;100.00
53514;BME280;39768;54.148;12.174;2022-10-18T16:53:33;102352.91;;;16.16;100.00
53514;BME280;39768;54.148;12.174;2022-10-18T16:57:34;102344.75;;;16.24;100.00
53514;BME280;39768;54.148;12.174;2022-10-18T17:01:36;102346.69;;;16.10;100.00
53514;BME280;39768;54.148;12.174;2022-10-18T17:05:39;102343.16;;;16.06;100.00
53514;BME280;39768;54.148;12.174;2022-10-18T17:09:40;102349.41;;;16.07;100.00
53514;BME280;39768;54.148;12.174;2022-10-18T17:13:43;102351.22;;;16.05;100.00
53514;BME280;39768;54.148;12.174;2022-10-18T17:17:45;102346.59;;;16.19;100.00
53514;BME280;39768;54.148;12.174;2022-10-18T17:21:47;102342.22;;;16.12;100.00
53514;BME280;39768;54.148;12.174;2022-10-18T17:25:49;102347.53;;;16.15;100.00
53514;BME280;39768;54.148;12.174;2022-10-18T17:30:09;102354.84;;;16.02;100.00
53514;BME280;39768;54.148;12.174;2022-10-18T17:34:11;102357.44;;;16.07;100.00
53514;BME280;39768;54.148;12.174;2022-10-18T17:38:17;102359.22;;;16.06;100.00
53514;BME280;39768;54.148;12.174;2022-10-18T17:42:19;102353.84;;;16.11;100.00
53514;BME280;39768;54.148;12.174;2022-10-18T17:46:21;102369.84;;;16.17;100.00
53514;BME280;39768;54.148;12.174;2022-10-18T17:50:24;102370.09;;;15.93;100.00
53514;BME280;39768;54.148;12.174;2022-10-18T17:54:25;102361.19;;;15.91;100.00
53514;BME280;39768;54.148;12.174;2022-10-18T17:58:27;102361.88;;;16.11;100.00
53514;BME280;39768;54.148;12.174;2022-10-18T18:02:28;102354.03;;;15.90;100.00
53514;BME280;39768;54.148;12.174;2022-10-18T18:06:35;102360.88;;;16.18;100.00
53514;BME280;39768;54.148;12.174;2022-10-18T18:10:39;102358.34;;;16.04;100.00
53514;BME280;39768;54.148;12.174;2022-10-18T18:14:41;102366.59;;;15.88;100.00
53514;BME280;39768;54.148;12.174;2022-10-18T18:18:43;102369.97;;;16.05;100.00
53514;BME280;39768;54.148;12.174;2022-10-18T18:22:45;102367.44;;;15.91;100.00
53514;BME280;39768;54.148;12.174;2022-10-18T18:26:46;102377.13;;;16.03;100.00
53514;BME280;39768;54.148;12.174;2022-10-18T18:30:48;102378.88;;;16.07;99.19
53514;BME280;39768;54.148;12.174;2022-10-18T18:34:49;102379.56;;;16.26;98.29
53514;BME280;39768;54.148;12.174;2022-10-18T18:38:51;102382.47;;;16.03;100.00
53514;BME280;39768;54.148;12.174;2022-10-18T18:42:58;102389.63;;;16.04;100.00
53514;BME280;39768;54.148;12.174;2022-10-18T18:47:19;102393.47;;;15.75;100.00
53514;BME280;39768;54.148;12.174;2022-10-18T18:51:24;102388.38;;;15.42;100.00
53514;BME280;39768;54.148;12.174;2022-10-18T18:55:26;102388.31;;;15.46;100.00
53514;BME280;39768;54.148;12.174;2022-10-18T18:59:27;102397.25;;;15.44;100.00
53514;BME280;39768;54.148;12.174;2022-10-18T19:03:29;102398.13;;;15.46;100.00
53514;BME280;39768;54.148;12.174;2022-10-18T19:07:30;102393.75;;;15.36;100.00
53514;BME280;39768;54.148;12.174;2022-10-18T19:11:34;102397.31;;;15.35;100.00
53514;BME280;39768;54.148;12.174;2022-10-18T19:15:36;102388.41;;;15.36;100.00
53514;BME280;39768;54.148;12.174;2022-10-18T19:19:37;102403.53;;;15.41;100.00
53514;BME280;39768;54.148;12.174;2022-10-18T19:23:41;102417.03;;;15.22;100.00
53514;BME280;39768;54.148;12.174;2022-10-18T19:27:42;102413.47;;;15.21;100.00
53514;BME280;39768;54.148;12.174;2022-10-18T19:31:44;102418.75;;;15.29;100.00
53514;BME280;39768;54.148;12.174;2022-10-18T19:35:45;102416.13;;;15.24;100.00
53514;BME280;39768;54.148;12.174;2022-10-18T19:39:47;102415.16;;;15.36;100.00
53514;BME280;39768;54.148;12.174;2022-10-18T19:43:50;102416.03;;;15.39;100.00
53514;BME280;39768;54.148;12.174;2022-10-18T19:47:51;102407.31;;;15.11;100.00
53514;BME280;39768;54.148;12.174;2022-10-18T19:51:53;102401.97;;;15.07;100.00
53514;BME280;39768;54.148;12.174;2022-10-18T19:55:59;102397.50;;;15.10;100.00
53514;BME280;39768;54.148;12.174;2022-10-18T20:00:01;102398.22;;;15.34;100.00
53514;BME280;39768;54.148;12.174;2022-10-18T20:04:12;102396.44;;;15.33;100.00
53514;BME280;39768;54.148;12.174;2022-10-18T20:08:14;102390.38;;;15.06;100.00
53514;BME280;39768;54.148;12.174;2022-10-18T20:12:15;102407.34;;;15.04;100.00
53514;BME280;39768;54.148;12.174;2022-10-18T20:16:19;102408.94;;;15.31;100.00
53514;BME280;39768;54.148;12.174;2022-10-18T20:20:28;102402.66;;;15.41;100.00
53514;BME280;39768;54.148;12.174;2022-10-18T20:24:29;102409.81;;;15.33;100.00
53514;BME280;39768;54.148;12.174;2022-10-18T20:28:31;102402.59;;;15.47;100.00
53514;BME280;39768;54.148;12.174;2022-10-18T20:32:33;102390.06;;;15.52;100.00
53514;BME280;39768;54.148;12.174;2022-10-18T20:36:35;102396.44;;;15.36;100.00
53514;BME280;39768;54.148;12.174;2022-10-18T20:40:37;102393.63;;;15.54;100.00
53514;BME280;39768;54.148;12.174;2022-10-18T20:44:38;102406.31;;;15.26;100.00
53514;BME280;39768;54.148;12.174;2022-10-18T20:48:43;102392.97;;;15.22;100.00
53514;BME280;39768;54.148;12.174;2022-10-18T20:52:44;102400.88;;;15.37;100.00
53514;BME280;39768;54.148;12.174;2022-10-18T20:56:51;102399.22;;;15.17;100.00
53514;BME280;39768;54.148;12.174;2022-10-18T21:00:52;102388.47;;;15.27;100.00
53514;BME280;39768;54.148;12.174;2022-10-18T21:04:54;102399.22;;;15.21;100.00
53514;BME280;39768;54.148;12.174;2022-10-18T21:09:01;102393.06;;;15.06;100.00
53514;BME280;39768;54.148;12.174;2022-10-18T21:13:03;102396.56;;;15.14;100.00
53514;BME280;39768;54.148;12.174;2022-10-18T21:17:04;102390.38;;;15.09;100.00
53514;BME280;39768;54.148;12.174;2022-10-18T21:21:17;102391.28;;;15.01;100.00
53514;BME280;39768;54.148;12.174;2022-10-18T21:25:19;102408.22;;;15.07;100.00
53514;BME280;39768;54.148;12.174;2022-10-18T21:29:21;102406.50;;;14.94;100.00
53514;BME280;39768;54.148;12.174;2022-10-18T21:33:24;102398.47;;;14.97;100.00
53514;BME280;39768;54.148;12.174;2022-10-18T21:37:26;102399.31;;;15.02;100.00
53514;BME280;39768;54.148;12.174;2022-10-18T21:41:27;102401.25;;;14.76;100.00
53514;BME280;39768;54.148;12.174;2022-10-18T21:45:30;102399.50;;;14.69;100.00
53514;BME280;39768;54.148;12.174;2022-10-18T21:49:32;102411.88;;;14.85;100.00
53514;BME280;39768;54.148;12.174;2022-10-18T21:53:35;102411.94;;;14.70;100.00
53514;BME280;39768;54.148;12.174;2022-10-18T21:57:37;102411.97;;;14.68;100.00